Lampasas, Texas
Current Conditions -  °F | °C
As of 5:53 AM on Monday 22 Dec 2014 (Local Time) from KBMQ Reporting Station
Few Clouds Few Clouds  
Wind Chill: 53°   Ceiling: Unl
Heat Index: 53°   Visibility: 10mi
Dew Point: 50°   Wind: 5mph
Humidity: 89%   Direction: 180°S
Pressure: 29.71"   Gusts: NA
Location:  31.07°N, 98.18°W
Report Text: KBMQ 221153Z AUTO 18004KT 10SM FEW014 12/10 A2971 RMK AO2 SLP054 T01170100 10128 20111 56010
Loading
Personal Weather Stations






























Interactive Weather Map New forecast layout! Learn more

10-Day Weather Forecast

Advertisements
Track Severe Weather on mobile